Airfield :







YOU CAN JOIN US ON...

 
LOGIN :

Register | Disclaimer

   EN    FR    IT 

 









Legend :    VFR   Marginal VFR   IFR   Intensive IFR   Very Intensive IFR
Visi :
Ceiling :
>= 8 km
>= 3000ft
5 to 8 km
1000 to 3000 ft
1500m to 5 km
500 to 1000 ft
800 to 1500m
200 to 500 ft
< 800m
< 200 ft
Symbols :   Thunderstorms  Fog  Heavy snow  Heavy precipitations  Wind > 20 kt






- Airport Elevation : 244 ft
- IATA code : YQB


CYQB - Quebec - Jean Lesage Int.

CURRENT METAR :
  • 230300Z 26008KT 15SM FEW010 OVC037 07/04 A2994 RMK SC1SC8 SC TR SLP143

EXPIRED METARs :
  • 230200Z 26009KT 15SM FEW015 OVC038 07/04 A2994 RMK SC1SC8 SC TR SLP142
  • 230100Z 26010KT 15SM FEW015 BKN040 07/04 A2993 RMK SC1SC6 SLP138

TAF TAF CYQB
Valid from the 23 at 00:00 until the 24 at 00:00 UTC


222338Z 2300/2324 26008KT P6SM FEW015 BKN040
TEMPO 2300/2303 P6SM -SHRA BKN015 BKN030
FM230300 26007KT P6SM FEW015 BKN030
TEMPO 2303/2318 BKN015 BKN030
FM231800 26006KT P6SM BKN025 RMK NXT FCST BY 230600Z
ATIS : ENG : +1 418-871-6893 FRA : +1 418-871-6895
CZUL FIR / North America



MET'MAP, your aeronautical weather chart ! - Copyright ORBIFLY December 2007 - Disclaimer

ORBIFLY MET'MAP TEAM :

Programming & Development : Alexandra Zaïnal
Concept & original design : Baudouin d'Aumeries
Assistance for programming : Marc-Olivier Méhu
Technical & hardware support : Manuel Goepfert

Contact : metmap@orbifly.com




SOURCES & CREDITS :

   NOAA